Time;durP1;ratioP1;P1;durP2;ratioP2;P2;SDS_P1;SDS_P2;PMS_P1;PMS_P2;Temp;Humidity;BMP_temperature;BMP_pressure;BME280_temperature;BME280_humidity;BME280_pressure;Samples;Min_cycle;Max_cycle;Signal;HPM_P1;HPM_P2
2023/04/08 00:00:32;;;;;;;32.00;21.10;;;6.50;99.90;;;;;;5054767;28;20222;-82
2023/04/08 00:03:01;;;;;;;20.75;18.65;;;6.50;99.90;;;;;;5054758;28;20218;-82
2023/04/08 00:05:29;;;;;;;22.77;20.38;;;6.40;99.90;;;;;;5055020;28;20217;-82
2023/04/08 00:07:58;;;;;;;24.10;18.10;;;6.40;99.90;;;;;;5054551;28;20205;-82
2023/04/08 00:10:26;;;;;;;16.33;14.73;;;6.40;99.90;;;;;;5055005;28;20217;-82
2023/04/08 00:12:56;;;;;;;13.60;12.30;;;6.30;99.90;;;;;;5054619;28;20222;-82
2023/04/08 00:15:24;;;;;;;13.18;11.95;;;6.20;99.90;;;;;;5055007;28;20208;-82
2023/04/08 00:17:53;;;;;;;11.05;9.95;;;6.00;99.90;;;;;;5054538;28;20240;-82
2023/04/08 00:20:23;;;;;;;10.98;10.05;;;5.90;99.90;;;;;;5055101;28;20206;-82
2023/04/08 00:22:51;;;;;;;10.35;9.40;;;5.80;99.90;;;;;;5054321;28;20228;-82
2023/04/08 00:25:20;;;;;;;14.05;11.20;;;5.70;99.90;;;;;;5054835;28;20209;-82
2023/04/08 00:27:52;;;;;;;11.63;10.52;;;5.70;99.90;;;;;;5054382;28;20221;-81
2023/04/08 00:30:21;;;;;;;10.63;9.63;;;5.60;99.90;;;;;;5054851;28;20206;-82
2023/04/08 00:32:50;;;;;;;11.30;9.98;;;5.60;99.90;;;;;;5054870;28;20229;-82
2023/04/08 00:35:18;;;;;;;9.95;9.05;;;5.50;99.90;;;;;;5054517;28;20206;-81
2023/04/08 00:37:46;;;;;;;11.73;9.68;;;5.40;99.90;;;;;;5053955;28;20233;-81
2023/04/08 00:40:15;;;;;;;9.52;8.52;;;5.40;99.90;;;;;;5054478;28;20206;-82
2023/04/08 00:42:45;;;;;;;8.85;7.97;;;5.40;99.90;;;;;;5053727;28;20467;-82
2023/04/08 00:45:13;;;;;;;8.23;7.35;;;5.30;99.90;;;;;;5054499;28;20201;-81
2023/04/08 00:47:43;;;;;;;8.98;8.10;;;5.30;99.90;;;;;;5053842;28;20206;-83
2023/04/08 00:50:12;;;;;;;6.35;5.82;;;5.20;99.90;;;;;;5054583;28;20212;-82
2023/04/08 00:52:40;;;;;;;7.57;6.88;;;5.20;99.90;;;;;;5053871;28;20218;-82
2023/04/08 00:55:08;;;;;;;6.68;6.18;;;5.20;99.90;;;;;;5054113;28;20206;-82
2023/04/08 00:57:36;;;;;;;6.75;5.88;;;5.10;99.90;;;;;;5053495;28;20206;-82
2023/04/08 01:00:05;;;;;;;6.05;5.55;;;5.10;99.90;;;;;;5054004;28;20213;-82
2023/04/08 01:02:43;;;;;;;7.07;6.47;;;5.00;99.90;;;;;;5053634;28;20265;-82
2023/04/08 01:05:20;;;;;;;6.28;5.78;;;5.00;99.90;;;;;;5053354;28;20237;-82
2023/04/08 01:07:49;;;;;;;7.63;5.95;;;5.00;99.90;;;;;;5053524;28;20201;-81
2023/04/08 01:10:26;;;;;;;7.47;6.38;;;5.00;99.90;;;;;;5053617;28;20213;-81
2023/04/08 01:12:57;;;;;;;5.88;5.38;;;4.90;99.90;;;;;;5053657;28;20311;-81
2023/04/08 01:15:27;;;;;;;6.15;5.57;;;4.90;99.90;;;;;;5053927;28;20220;-81
2023/04/08 01:17:58;;;;;;;5.43;4.97;;;4.80;99.90;;;;;;5052927;28;20245;-81
2023/04/08 01:20:29;;;;;;;5.75;5.28;;;4.80;99.90;;;;;;5053499;28;20205;-81
2023/04/08 01:23:06;;;;;;;4.30;4.00;;;4.80;99.90;;;;;;5053164;28;20230;-81
2023/04/08 01:25:37;;;;;;;5.63;4.93;;;4.80;99.90;;;;;;5053504;28;20229;-81
2023/04/08 01:28:10;;;;;;;4.97;4.50;;;4.80;99.90;;;;;;5052901;28;20217;-81
2023/04/08 01:30:40;;;;;;;4.63;4.22;;;4.70;99.90;;;;;;5053509;28;20210;-81
2023/04/08 01:33:14;;;;;;;4.78;4.38;;;4.70;99.90;;;;;;5053402;28;20230;-81
2023/04/08 01:35:42;;;;;;;5.13;4.72;;;4.70;99.90;;;;;;5053420;28;20212;-81
2023/04/08 01:38:15;;;;;;;4.72;4.30;;;4.70;99.90;;;;;;5052812;28;20297;-81
2023/04/08 01:40:44;;;;;;;5.85;5.28;;;4.60;99.90;;;;;;5053231;28;20206;-81
2023/04/08 01:43:17;;;;;;;5.95;5.28;;;4.60;99.90;;;;;;5053062;28;20232;-82
2023/04/08 01:45:47;;;;;;;5.57;5.10;;;4.60;99.90;;;;;;5053219;28;20208;-82
2023/04/08 01:48:16;;;;;;;4.40;4.03;;;4.50;99.90;;;;;;5052172;28;20241;-82
2023/04/08 01:50:45;;;;;;;4.78;4.32;;;4.50;99.90;;;;;;5052846;28;20206;-81
2023/04/08 01:53:14;;;;;;;3.88;3.58;;;4.50;99.90;;;;;;5053079;28;20377;-82
2023/04/08 01:55:46;;;;;;;4.90;4.40;;;4.50;99.90;;;;;;5053107;28;20201;-81
2023/04/08 01:58:22;;;;;;;3.92;3.63;;;4.50;99.90;;;;;;5052340;28;20213;-81
2023/04/08 02:00:56;;;;;;;4.57;4.20;;;4.40;99.90;;;;;;5052610;28;20232;-82
2023/04/08 02:03:28;;;;;;;4.97;4.55;;;4.40;99.90;;;;;;5052503;28;20232;-80
2023/04/08 02:05:57;;;;;;;4.03;3.67;;;4.40;99.90;;;;;;5052986;28;20205;-81
2023/04/08 02:08:26;;;;;;;5.95;3.95;;;4.40;99.90;;;;;;5052024;28;20216;-81
2023/04/08 02:10:54;;;;;;;3.72;3.42;;;4.30;99.90;;;;;;5052769;28;20221;-81
2023/04/08 02:13:24;;;;;;;3.65;3.35;;;4.30;99.90;;;;;;5052719;28;20205;-81
2023/04/08 02:16:01;;;;;;;3.35;3.05;;;4.30;99.90;;;;;;5052125;28;20208;-82
2023/04/08 02:18:31;;;;;;;4.45;3.50;;;4.30;99.90;;;;;;5052013;28;20233;-82
2023/04/08 02:21:07;;;;;;;3.15;2.95;;;4.20;99.90;;;;;;5052467;28;20232;-81
2023/04/08 02:23:38;;;;;;;3.10;2.90;;;4.20;99.90;;;;;;5052232;28;20258;-82
2023/04/08 02:26:12;;;;;;;2.88;2.67;;;4.10;99.90;;;;;;5052645;28;20213;-82
2023/04/08 02:28:43;;;;;;;3.67;3.10;;;4.10;99.90;;;;;;5052074;28;20214;-82
2023/04/08 02:31:14;;;;;;;3.17;2.88;;;4.10;99.90;;;;;;5053108;28;20279;-82
2023/04/08 02:33:43;;;;;;;2.95;2.67;;;4.00;99.90;;;;;;5052721;28;20197;-82
2023/04/08 02:36:12;;;;;;;2.67;2.47;;;4.00;99.90;;;;;;5052424;28;20201;-82
2023/04/08 02:38:40;;;;;;;2.50;2.30;;;4.00;99.90;;;;;;5051899;28;20210;-82
2023/04/08 02:41:09;;;;;;;2.75;2.55;;;4.00;99.90;;;;;;5052239;28;20229;-82
2023/04/08 02:43:37;;;;;;;2.55;2.38;;;3.90;99.90;;;;;;5052242;28;20236;-82
2023/04/08 02:46:07;;;;;;;2.53;2.33;;;3.90;99.90;;;;;;5052464;28;20205;-82
2023/04/08 02:48:36;;;;;;;2.78;2.58;;;3.80;99.90;;;;;;5051865;28;20217;-82
2023/04/08 02:51:04;;;;;;;3.13;2.92;;;3.80;99.90;;;;;;5052131;28;20226;-81
2023/04/08 02:53:32;;;;;;;3.33;3.00;;;3.80;99.90;;;;;;5052224;28;20205;-81
2023/04/08 02:56:00;;;;;;;2.83;2.63;;;3.80;99.90;;;;;;5051911;28;20294;-81
2023/04/08 02:58:29;;;;;;;2.58;2.40;;;3.80;99.90;;;;;;5052237;28;20216;-81
2023/04/08 03:00:57;;;;;;;2.60;2.40;;;3.70;99.90;;;;;;5052509;28;20229;-81
2023/04/08 03:03:28;;;;;;;2.70;2.50;;;3.60;99.90;;;;;;5051904;28;20289;-81
2023/04/08 03:05:57;;;;;;;2.95;2.38;;;3.50;99.90;;;;;;5052155;28;20221;-81
2023/04/08 03:08:26;;;;;;;2.30;2.17;;;3.40;99.90;;;;;;5051703;28;20240;-81
2023/04/08 03:10:54;;;;;;;3.10;2.90;;;3.40;99.90;;;;;;5052235;28;20221;-81
2023/04/08 03:13:23;;;;;;;2.60;2.40;;;3.30;99.90;;;;;;5052161;28;20226;-81
2023/04/08 03:15:51;;;;;;;3.28;2.97;;;3.30;99.90;;;;;;5052225;28;20210;-81
2023/04/08 03:18:20;;;;;;;2.67;2.47;;;3.30;99.90;;;;;;5052129;28;20216;-81
2023/04/08 03:20:50;;;;;;;2.70;2.05;;;3.20;99.90;;;;;;5051862;28;20331;-81
2023/04/08 03:23:18;;;;;;;2.45;2.35;;;3.10;99.90;;;;;;5052364;28;20232;-81
2023/04/08 03:25:46;;;;;;;3.25;2.95;;;3.00;99.90;;;;;;5052050;28;20369;-81
2023/04/08 03:28:14;;;;;;;2.03;1.92;;;3.00;99.90;;;;;;5053964;28;20212;-81
2023/04/08 03:30:43;;;;;;;2.10;2.00;;;2.90;99.90;;;;;;5055373;28;20197;-81
2023/04/08 03:33:11;;;;;;;2.03;1.92;;;2.90;99.90;;;;;;5055648;28;20212;-81
2023/04/08 03:35:39;;;;;;;2.92;2.35;;;2.80;99.90;;;;;;5055581;28;20210;-81
2023/04/08 03:38:09;;;;;;;1.58;1.48;;;2.80;99.90;;;;;;5055209;28;20244;-81
2023/04/08 03:40:38;;;;;;;1.55;1.48;;;2.80;99.90;;;;;;5055625;28;20220;-81
2023/04/08 03:43:07;;;;;;;2.45;2.22;;;2.80;99.90;;;;;;5055264;28;20241;-81
2023/04/08 03:45:35;;;;;;;1.58;1.48;;;2.80;99.90;;;;;;5055387;28;20268;-81
2023/04/08 03:48:04;;;;;;;1.85;1.75;;;2.80;99.90;;;;;;5054677;28;20210;-81
2023/04/08 03:50:32;;;;;;;1.77;1.67;;;2.80;99.90;;;;;;5055672;28;20217;-81
2023/04/08 03:53:00;;;;;;;1.73;1.63;;;2.70;99.90;;;;;;5055350;28;20202;-80
2023/04/08 03:55:30;;;;;;;3.03;1.88;;;2.70;99.90;;;;;;5055634;28;20220;-80
2023/04/08 03:57:58;;;;;;;1.90;1.80;;;2.70;99.90;;;;;;5054690;28;20206;-80
2023/04/08 04:00:27;;;;;;;1.75;1.65;;;2.60;99.90;;;;;;5055075;28;20209;-81
2023/04/08 04:02:55;;;;;;;2.40;1.77;;;2.60;99.90;;;;;;5055432;28;20256;-81
2023/04/08 04:05:24;;;;;;;2.10;2.00;;;2.60;99.90;;;;;;5055281;28;20210;-82
2023/04/08 04:07:52;;;;;;;1.95;1.85;;;2.50;99.90;;;;;;5054333;28;20201;-83
2023/04/08 04:10:20;;;;;;;1.70;1.60;;;2.50;99.90;;;;;;5055040;28;20206;-83
2023/04/08 04:12:50;;;;;;;2.00;1.88;;;2.40;99.90;;;;;;5054883;28;20233;-82
2023/04/08 04:15:19;;;;;;;1.90;1.80;;;2.50;99.90;;;;;;5054762;28;20213;-82
2023/04/08 04:17:49;;;;;;;1.98;1.88;;;2.40;99.90;;;;;;5054551;28;20223;-82
2023/04/08 04:20:17;;;;;;;1.92;1.83;;;2.40;99.90;;;;;;5054947;28;20263;-83
2023/04/08 04:22:46;;;;;;;2.50;2.30;;;2.40;99.90;;;;;;5054688;28;20229;-82
2023/04/08 04:25:14;;;;;;;1.63;1.55;;;2.40;99.90;;;;;;5055205;28;20212;-82
2023/04/08 04:27:42;;;;;;;2.13;2.00;;;2.50;99.90;;;;;;5054032;28;20220;-82
2023/04/08 04:30:14;;;;;;;1.90;1.80;;;2.50;99.90;;;;;;5054950;28;20214;-82
2023/04/08 04:32:42;;;;;;;3.83;3.53;;;2.50;99.90;;;;;;5054776;28;20253;-82
2023/04/08 04:35:12;;;;;;;3.17;2.95;;;2.50;99.90;;;;;;5054497;28;20208;-82
2023/04/08 04:37:40;;;;;;;2.75;2.55;;;2.50;99.90;;;;;;5053797;28;20205;-82
2023/04/08 04:40:09;;;;;;;3.65;3.35;;;2.50;99.90;;;;;;5053578;28;20265;-82
2023/04/08 04:42:38;;;;;;;4.22;3.83;;;2.50;99.90;;;;;;5054343;28;20333;-82
2023/04/08 04:45:08;;;;;;;3.65;3.28;;;2.50;99.90;;;;;;5054457;28;20228;-82
2023/04/08 04:47:37;;;;;;;3.83;3.53;;;2.50;99.90;;;;;;5053741;28;20221;-82
2023/04/08 04:50:07;;;;;;;4.63;4.22;;;2.60;99.90;;;;;;5054610;28;20216;-82
2023/04/08 04:52:36;;;;;;;3.75;3.50;;;2.70;99.90;;;;;;5054061;28;20225;-82
2023/04/08 04:55:11;;;;;;;4.13;3.83;;;2.70;99.90;;;;;;5054161;28;20267;-81
2023/04/08 04:57:39;;;;;;;5.07;4.57;;;2.70;99.90;;;;;;5053646;28;20213;-80
2023/04/08 05:00:09;;;;;;;4.20;3.80;;;2.70;99.90;;;;;;5054159;28;20231;-80
2023/04/08 05:02:39;;;;;;;4.00;3.70;;;2.80;99.90;;;;;;5053997;28;20241;-80
2023/04/08 05:05:08;;;;;;;4.53;4.13;;;2.80;99.90;;;;;;5053671;28;20225;-80
2023/04/08 05:07:36;;;;;;;5.03;4.63;;;2.80;99.90;;;;;;5053528;28;20217;-80
2023/04/08 05:10:06;;;;;;;8.75;4.00;;;2.80;99.90;;;;;;5053868;28;20212;-80
2023/04/08 05:12:35;;;;;;;5.03;4.63;;;2.80;99.90;;;;;;5053525;28;20225;-80
2023/04/08 05:15:05;;;;;;;5.22;4.72;;;2.90;99.90;;;;;;5054184;28;20201;-80
2023/04/08 05:17:33;;;;;;;4.30;3.92;;;3.00;99.90;;;;;;5053120;28;20208;-80
2023/04/08 05:20:04;;;;;;;3.45;3.25;;;3.00;99.90;;;;;;5054130;28;20255;-80
2023/04/08 05:22:33;;;;;;;4.15;3.83;;;3.00;99.90;;;;;;5053776;28;20233;-80
2023/04/08 05:25:01;;;;;;;4.53;4.10;;;3.00;99.90;;;;;;5053111;28;20221;-80
2023/04/08 05:27:30;;;;;;;2.75;2.63;;;3.00;99.90;;;;;;5053244;28;20241;-80
2023/04/08 05:29:58;;;;;;;3.65;3.35;;;3.10;99.90;;;;;;5053543;28;20233;-80
2023/04/08 05:32:28;;;;;;;3.70;3.40;;;3.10;99.90;;;;;;5053435;28;20229;-80
2023/04/08 05:34:56;;;;;;;3.88;3.58;;;3.10;99.90;;;;;;5053355;28;20294;-80
2023/04/08 05:37:26;;;;;;;4.07;3.78;;;3.10;99.90;;;;;;5052531;28;20201;-80
2023/04/08 05:39:55;;;;;;;3.83;3.53;;;3.20;99.90;;;;;;5052759;28;20210;-80
2023/04/08 05:42:23;;;;;;;4.10;3.78;;;3.10;99.90;;;;;;5053305;28;20229;-80
2023/04/08 05:44:51;;;;;;;3.88;3.58;;;3.10;99.90;;;;;;5052864;28;20297;-80
2023/04/08 05:47:20;;;;;;;4.03;3.72;;;3.20;99.90;;;;;;5052486;28;20216;-80
2023/04/08 05:49:48;;;;;;;3.40;3.20;;;3.20;99.90;;;;;;5053185;28;20201;-81
2023/04/08 05:52:18;;;;;;;3.35;3.05;;;3.20;99.90;;;;;;5051990;28;20229;-82
2023/04/08 05:54:48;;;;;;;3.45;3.15;;;3.20;99.90;;;;;;5053190;28;20202;-82
2023/04/08 05:57:16;;;;;;;2.67;2.47;;;3.30;99.90;;;;;;5052430;28;20209;-82
2023/04/08 05:59:44;;;;;;;2.50;2.40;;;3.30;99.90;;;;;;5053043;28;20224;-82
2023/04/08 06:02:13;;;;;;;2.67;2.47;;;3.40;99.90;;;;;;5053021;28;20247;-82
2023/04/08 06:04:41;;;;;;;2.55;2.35;;;3.40;99.90;;;;;;5052782;28;20232;-82
2023/04/08 06:07:10;;;;;;;2.50;2.30;;;3.40;99.90;;;;;;5052430;28;20251;-82
2023/04/08 06:09:38;;;;;;;2.22;2.13;;;3.40;99.90;;;;;;5052663;28;20216;-82
2023/04/08 06:12:08;;;;;;;3.95;2.65;;;3.30;99.90;;;;;;5052903;28;20233;-82
2023/04/08 06:14:36;;;;;;;2.05;1.95;;;3.30;99.90;;;;;;5052462;28;20202;-82
2023/04/08 06:17:04;;;;;;;2.70;2.50;;;3.30;99.90;;;;;;5052317;28;20211;-82
2023/04/08 06:19:35;;;;;;;2.65;2.45;;;3.30;99.90;;;;;;5052528;28;20237;-79
2023/04/08 06:22:03;;;;;;;2.45;2.25;;;3.40;99.90;;;;;;5052466;28;20226;-80
2023/04/08 06:24:32;;;;;;;2.42;2.22;;;3.40;99.90;;;;;;5052528;28;20236;-80
2023/04/08 06:27:00;;;;;;;2.13;2.00;;;3.40;99.90;;;;;;5052002;28;20213;-80
2023/04/08 06:29:30;;;;;;;2.47;2.28;;;3.40;99.90;;;;;;5052873;28;20205;-80
2023/04/08 06:31:58;;;;;;;2.85;2.33;;;3.30;99.90;;;;;;5052707;28;20228;-80
2023/04/08 06:34:26;;;;;;;1.92;1.83;;;3.40;99.90;;;;;;5052621;28;20208;-80
2023/04/08 06:36:55;;;;;;;2.05;1.95;;;3.30;99.90;;;;;;5051914;28;20205;-80
2023/04/08 06:39:23;;;;;;;3.08;2.40;;;3.40;99.90;;;;;;5052582;28;20210;-80
2023/04/08 06:41:53;;;;;;;2.42;2.22;;;3.40;99.90;;;;;;5052473;28;20229;-80
2023/04/08 06:44:21;;;;;;;2.53;2.33;;;3.40;99.90;;;;;;5052585;28;20229;-80
2023/04/08 06:46:51;;;;;;;2.58;2.38;;;3.50;99.90;;;;;;5051840;28;20212;-80
2023/04/08 06:49:19;;;;;;;2.15;2.03;;;3.50;99.90;;;;;;5052289;28;20206;-80
2023/04/08 06:51:48;;;;;;;2.55;2.35;;;3.50;99.90;;;;;;5052354;28;20225;-80
2023/04/08 06:54:16;;;;;;;2.60;2.40;;;3.40;99.90;;;;;;5052545;28;20205;-80
2023/04/08 06:56:45;;;;;;;2.42;2.30;;;3.40;99.90;;;;;;5051890;28;20201;-80
2023/04/08 06:59:13;;;;;;;2.80;2.58;;;3.50;99.90;;;;;;5052257;28;20281;-82
2023/04/08 07:01:41;;;;;;;2.85;2.65;;;3.60;99.90;;;;;;5052166;28;20238;-82
2023/04/08 07:04:11;;;;;;;2.90;2.63;;;3.60;99.90;;;;;;5055649;28;20237;-82
2023/04/08 07:06:40;;;;;;;2.67;2.47;;;3.70;99.90;;;;;;5056215;28;20236;-82
2023/04/08 07:09:08;;;;;;;3.63;2.92;;;3.60;99.90;;;;;;5055944;28;20216;-82
2023/04/08 07:11:36;;;;;;;2.63;2.45;;;3.60;99.90;;;;;;5056503;28;20238;-82
2023/04/08 07:14:05;;;;;;;2.42;2.33;;;3.60;99.90;;;;;;5055844;28;20205;-82
2023/04/08 07:16:33;;;;;;;4.05;2.72;;;3.70;99.90;;;;;;5056348;28;20210;-82
2023/04/08 07:19:02;;;;;;;2.45;2.35;;;3.70;99.90;;;;;;5055406;28;20201;-82
2023/04/08 07:21:31;;;;;;;2.88;2.67;;;3.80;99.90;;;;;;5055984;28;20252;-82
2023/04/08 07:24:00;;;;;;;3.13;2.90;;;3.80;99.90;;;;;;5055651;28;20257;-82
2023/04/08 07:26:28;;;;;;;3.28;3.00;;;3.80;99.90;;;;;;5055265;28;20225;-82
2023/04/08 07:28:56;;;;;;;2.75;2.55;;;3.70;99.90;;;;;;5055392;28;20214;-82
2023/04/08 07:31:25;;;;;;;3.30;3.05;;;3.80;99.90;;;;;;5055725;28;20226;-82
2023/04/08 07:33:53;;;;;;;3.75;3.40;;;3.80;99.90;;;;;;5055703;28;20221;-82
2023/04/08 07:36:21;;;;;;;3.50;3.20;;;3.90;99.90;;;;;;5055543;28;20210;-82
2023/04/08 07:38:51;;;;;;;4.18;3.78;;;3.90;99.90;;;;;;5055380;28;20212;-81
2023/04/08 07:41:19;;;;;;;3.28;3.03;;;3.90;99.90;;;;;;5055344;28;20225;-81
2023/04/08 07:43:48;;;;;;;3.38;3.17;;;4.00;99.90;;;;;;5055708;28;20217;-81
2023/04/08 07:46:16;;;;;;;3.70;3.40;;;4.00;99.90;;;;;;5055312;28;20276;-81
2023/04/08 07:48:44;;;;;;;4.25;3.85;;;4.00;99.90;;;;;;5054621;28;20213;-81
2023/04/08 07:51:13;;;;;;;6.80;4.68;;;4.10;99.90;;;;;;5055720;28;20228;-81
2023/04/08 07:53:41;;;;;;;3.67;3.38;;;4.00;99.90;;;;;;5055238;28;20217;-81
2023/04/08 07:56:17;;;;;;;3.90;3.50;;;4.00;99.90;;;;;;5055243;28;20288;-81
2023/04/08 07:58:49;;;;;;;4.03;3.72;;;4.00;99.90;;;;;;5054969;28;20205;-81
2023/04/08 08:01:22;;;;;;;3.80;3.50;;;4.00;99.90;;;;;;5055110;28;20242;-81
2023/04/08 08:03:51;;;;;;;4.65;4.18;;;4.00;99.90;;;;;;5055242;28;20288;-81
2023/04/08 08:06:22;;;;;;;4.60;4.18;;;4.00;99.90;;;;;;5037392;28;20226;-81
2023/04/08 08:08:50;;;;;;;4.55;4.15;;;4.00;99.90;;;;;;5054567;28;20205;-81
2023/04/08 08:11:21;;;;;;;7.13;5.25;;;4.10;99.90;;;;;;5055091;28;20241;-81
2023/04/08 08:13:49;;;;;;;6.82;5.28;;;4.10;99.90;;;;;;5054008;28;20202;-81
2023/04/08 08:16:18;;;;;;;5.47;5.03;;;4.20;99.90;;;;;;5054808;28;20193;-81
2023/04/08 08:18:46;;;;;;;5.32;4.82;;;4.20;99.90;;;;;;5054030;28;20209;-81
2023/04/08 08:21:14;;;;;;;5.28;4.85;;;4.20;99.90;;;;;;5055131;28;20225;-81
2023/04/08 08:23:43;;;;;;;6.63;5.05;;;4.20;99.90;;;;;;5054675;28;20209;-81
2023/04/08 08:26:11;;;;;;;5.18;4.72;;;4.30;99.90;;;;;;5054495;28;20233;-81
2023/04/08 08:28:41;;;;;;;6.15;5.57;;;4.20;99.90;;;;;;5054253;28;20216;-81
2023/04/08 08:31:09;;;;;;;6.18;5.57;;;4.20;99.90;;;;;;5054293;28;20229;-81
2023/04/08 08:33:38;;;;;;;6.82;5.60;;;4.20;99.90;;;;;;5054943;28;20206;-81
2023/04/08 08:36:06;;;;;;;5.82;5.28;;;4.20;99.90;;;;;;5054492;28;20212;-81
2023/04/08 08:38:34;;;;;;;5.80;5.30;;;4.20;99.90;;;;;;5054102;28;20241;-81
2023/04/08 08:41:04;;;;;;;5.93;5.22;;;4.30;99.90;;;;;;5054512;28;20237;-81
2023/04/08 08:43:33;;;;;;;5.95;5.32;;;4.20;99.90;;;;;;5054372;28;20212;-81
2023/04/08 08:46:03;;;;;;;5.90;5.40;;;4.30;99.90;;;;;;5054077;28;20218;-81
2023/04/08 08:48:31;;;;;;;5.97;5.47;;;4.40;99.90;;;;;;5054054;28;20210;-81
2023/04/08 08:51:00;;;;;;;6.78;6.13;;;4.40;99.90;;;;;;5053846;28;20229;-81
2023/04/08 08:53:30;;;;;;;7.80;6.38;;;4.50;99.90;;;;;;5054001;28;20207;-81
2023/04/08 08:56:16;;;;;;;5.05;4.57;;;4.50;99.90;;;;;;5054049;28;20297;-81
2023/04/08 08:58:46;;;;;;;6.15;5.65;;;4.60;99.90;;;;;;5053955;28;20267;-81
2023/04/08 09:01:32;;;;;;;6.70;6.10;;;4.60;99.90;;;;;;5054254;28;20241;-81
2023/04/08 09:04:09;;;;;;;5.82;5.32;;;4.70;99.90;;;;;;5053995;28;20210;-79
2023/04/08 09:06:39;;;;;;;5.85;5.35;;;4.70;99.90;;;;;;5053387;28;20290;-80
2023/04/08 09:09:10;;;;;;;5.15;4.72;;;4.70;99.90;;;;;;5053853;28;20210;-79
2023/04/08 09:11:39;;;;;;;7.55;6.15;;;4.60;99.90;;;;;;5053794;28;20260;-80
2023/04/08 09:14:21;;;;;;;5.40;4.85;;;4.50;99.90;;;;;;5053525;28;20216;-80
2023/04/08 09:16:51;;;;;;;5.30;4.80;;;4.60;99.90;;;;;;5053424;28;20212;-80
2023/04/08 09:19:20;;;;;;;5.30;4.80;;;4.60;99.90;;;;;;5053604;28;20213;-79
2023/04/08 09:22:05;;;;;;;6.55;5.03;;;4.60;99.90;;;;;;5053442;28;20229;-79
2023/04/08 09:24:34;;;;;;;5.95;5.43;;;4.70;99.90;;;;;;5053599;28;20264;-79
2023/04/08 09:27:02;;;;;;;5.90;5.35;;;4.70;99.90;;;;;;5052867;28;20225;-80
2023/04/08 09:29:31;;;;;;;5.93;5.43;;;4.70;99.90;;;;;;5053304;28;20212;-80
2023/04/08 09:32:05;;;;;;;8.85;6.03;;;4.80;99.90;;;;;;5053520;28;20240;-79
2023/04/08 09:34:34;;;;;;;6.40;5.15;;;4.70;99.90;;;;;;5053556;28;20209;-79
2023/04/08 09:37:02;;;;;;;6.47;5.72;;;4.70;99.90;;;;;;5053141;28;20275;-79
2023/04/08 09:39:31;;;;;;;5.72;5.25;;;4.60;99.90;;;;;;5053280;28;20208;-79
2023/04/08 09:42:05;;;;;;;7.47;6.78;;;4.70;99.90;;;;;;5053179;28;20225;-79
2023/04/08 09:44:35;;;;;;;5.80;5.30;;;4.70;99.90;;;;;;5053447;28;20214;-79
2023/04/08 09:47:12;;;;;;;7.80;6.47;;;4.80;99.90;;;;;;5052444;28;20233;-79
2023/04/08 09:49:47;;;;;;;7.07;6.25;;;4.90;99.90;;;;;;5052928;28;20208;-79
2023/04/08 09:52:21;;;;;;;6.78;6.18;;;5.00;99.90;;;;;;5053236;28;20308;-79
2023/04/08 09:54:54;;;;;;;6.47;5.88;;;5.00;99.90;;;;;;5052874;28;20212;-80
2023/04/08 09:57:32;;;;;;;6.60;5.90;;;5.10;99.90;;;;;;5052679;28;20209;-79
2023/04/08 10:00:07;;;;;;;6.85;6.15;;;5.10;99.90;;;;;;5052981;28;20205;-79
2023/04/08 10:02:45;;;;;;;7.00;6.38;;;5.10;99.90;;;;;;5052690;28;20237;-79
2023/04/08 10:05:15;;;;;;;7.00;5.82;;;5.10;99.90;;;;;;5053428;28;20216;-80
2023/04/08 10:07:44;;;;;;;7.80;6.80;;;5.20;99.90;;;;;;5052316;28;20226;-79
2023/04/08 10:10:12;;;;;;;8.68;7.50;;;5.20;99.90;;;;;;5052866;28;20216;-80
2023/04/08 10:12:41;;;;;;;6.55;5.95;;;5.30;99.90;;;;;;5052515;28;20221;-79
2023/04/08 10:15:23;;;;;;;7.55;6.60;;;5.10;99.90;;;;;;5052672;28;20294;-79
2023/04/08 10:17:53;;;;;;;7.22;6.53;;;5.10;99.90;;;;;;5052339;28;20260;-79
2023/04/08 10:20:44;;;;;;;9.55;7.65;;;5.10;99.90;;;;;;5052892;28;20216;-79
2023/04/08 10:23:14;;;;;;;8.15;7.30;;;5.10;99.90;;;;;;5052777;28;20210;-79
2023/04/08 10:25:43;;;;;;;8.20;7.40;;;5.10;99.90;;;;;;5052663;28;20284;-79
2023/04/08 10:28:25;;;;;;;33.90;6.32;;;5.00;99.90;;;;;;5051705;28;20226;-79
2023/04/08 10:30:54;;;;;;;8.48;6.32;;;5.00;99.90;;;;;;5052640;28;20236;-79
2023/04/08 10:33:31;;;;;;;9.20;6.55;;;4.90;99.90;;;;;;5052782;28;20205;-78
2023/04/08 10:36:03;;;;;;;9.50;6.78;;;4.90;99.90;;;;;;5052421;28;20209;-81
2023/04/08 10:38:33;;;;;;;10.98;6.90;;;4.90;99.90;;;;;;5051147;28;20284;-81
2023/04/08 10:41:03;;;;;;;5.72;5.25;;;4.90;99.90;;;;;;5052647;28;20234;-81
2023/04/08 10:43:33;;;;;;;7.50;6.30;;;4.90;99.90;;;;;;5052573;28;20205;-81
2023/04/08 10:46:02;;;;;;;10.52;6.65;;;4.80;99.90;;;;;;5052922;28;20202;-81
2023/04/08 10:48:32;;;;;;;8.63;7.15;;;4.80;99.90;;;;;;5051658;28;20236;-81
2023/04/08 10:51:01;;;;;;;8.05;7.25;;;4.80;99.90;;;;;;5052075;28;20222;-81
2023/04/08 10:53:32;;;;;;;8.05;7.25;;;4.80;99.90;;;;;;5052586;28;20201;-81
2023/04/08 10:56:05;;;;;;;8.23;7.35;;;4.90;99.90;;;;;;5052592;28;20255;-81
2023/04/08 10:58:35;;;;;;;9.95;8.18;;;4.90;99.90;;;;;;5051879;28;20206;-81
2023/04/08 11:01:06;;;;;;;6.95;6.35;;;5.10;99.90;;;;;;5051802;28;20241;-81
2023/04/08 11:03:36;;;;;;;7.50;6.70;;;5.10;99.90;;;;;;5052068;28;20214;-81
2023/04/08 11:06:06;;;;;;;9.32;8.35;;;5.20;99.90;;;;;;5051982;28;20335;-81
2023/04/08 11:08:36;;;;;;;9.50;8.52;;;5.20;99.90;;;;;;5051546;28;20229;-81
2023/04/08 11:11:07;;;;;;;9.77;8.73;;;5.30;99.90;;;;;;5052048;28;20252;-81
2023/04/08 11:13:37;;;;;;;9.68;8.68;;;5.40;99.90;;;;;;5052592;28;20205;-80
2023/04/08 11:16:07;;;;;;;8.50;7.47;;;5.40;99.90;;;;;;5052165;28;20213;-80
2023/04/08 11:18:46;;;;;;;10.70;8.75;;;5.40;99.90;;;;;;5051852;28;20229;-81
2023/04/08 11:21:16;;;;;;;11.60;8.48;;;5.40;99.90;;;;;;5052227;28;20225;-81
2023/04/08 11:23:45;;;;;;;9.65;8.57;;;5.40;99.90;;;;;;5052046;28;20201;-80
2023/04/08 11:26:15;;;;;;;10.70;8.65;;;5.40;99.90;;;;;;5052043;28;20209;-80
2023/04/08 11:28:44;;;;;;;10.63;9.52;;;5.40;99.90;;;;;;5051471;28;20300;-80
2023/04/08 11:31:16;;;;;;;16.13;10.05;;;5.30;99.90;;;;;;5052173;28;20260;-80
2023/04/08 11:33:47;;;;;;;10.48;9.18;;;5.30;99.90;;;;;;5051909;28;20292;-81
2023/04/08 11:36:17;;;;;;;9.32;8.40;;;5.30;99.90;;;;;;5052174;28;20214;-81
2023/04/08 11:38:46;;;;;;;10.07;9.07;;;5.30;99.90;;;;;;5051469;28;20211;-81
2023/04/08 11:41:16;;;;;;;11.70;9.90;;;5.30;99.90;;;;;;5051783;28;20304;-81
2023/04/08 11:43:57;;;;;;;12.27;9.60;;;5.30;99.90;;;;;;5051827;28;20212;-81
2023/04/08 11:46:25;;;;;;;11.77;10.48;;;5.30;99.90;;;;;;5051749;28;20213;-81
2023/04/08 11:49:06;;;;;;;13.85;9.55;;;5.30;99.90;;;;;;5050936;28;20222;-81
2023/04/08 11:51:36;;;;;;;9.55;8.23;;;5.30;99.90;;;;;;5055368;28;20304;-81
2023/04/08 11:54:06;;;;;;;12.07;8.82;;;5.40;99.90;;;;;;5055612;28;20206;-81
2023/04/08 11:56:46;;;;;;;10.02;7.72;;;5.40;99.90;;;;;;5055210;28;20216;-81
2023/04/08 11:59:14;;;;;;;7.32;6.45;;;5.50;99.90;;;;;;5055177;28;20296;-81
2023/04/08 12:01:43;;;;;;;9.50;8.57;;;5.50;99.90;;;;;;5055031;28;20238;-81
2023/04/08 12:04:13;;;;;;;12.65;10.73;;;5.60;99.90;;;;;;5055211;28;20209;-81
2023/04/08 12:06:45;;;;;;;10.02;8.80;;;5.50;99.90;;;;;;5054776;28;20265;-80
2023/04/08 12:09:13;;;;;;;9.63;8.68;;;5.50;99.90;;;;;;5055165;28;20225;-81
2023/04/08 12:11:42;;;;;;;8.32;7.55;;;5.50;99.90;;;;;;5055017;28;20232;-81
2023/04/08 12:14:10;;;;;;;8.45;7.13;;;5.40;99.90;;;;;;5054851;28;20212;-81
2023/04/08 12:16:38;;;;;;;17.60;8.02;;;5.40;99.90;;;;;;5055032;28;20213;-82
2023/04/08 12:19:07;;;;;;;9.55;8.45;;;5.50;99.90;;;;;;5054915;28;20205;-81
2023/04/08 12:21:37;;;;;;;9.18;8.27;;;5.50;99.90;;;;;;5054524;28;20230;-81
2023/04/08 12:24:05;;;;;;;16.75;8.32;;;5.50;99.90;;;;;;5054788;28;20216;-81
2023/04/08 12:26:33;;;;;;;9.65;8.68;;;5.60;99.90;;;;;;5054559;28;20213;-81
2023/04/08 12:29:02;;;;;;;11.40;8.75;;;5.60;99.90;;;;;;5054371;28;20264;-81
2023/04/08 12:31:30;;;;;;;8.60;7.70;;;5.60;99.90;;;;;;5054405;28;20228;-81
2023/04/08 12:33:59;;;;;;;9.45;8.23;;;5.70;99.90;;;;;;5054521;28;20214;-81
2023/04/08 12:36:27;;;;;;;8.07;7.38;;;5.70;99.90;;;;;;5054808;28;20208;-81
2023/04/08 12:38:57;;;;;;;8.57;7.63;;;5.70;99.90;;;;;;5054156;28;20205;-80
2023/04/08 12:41:25;;;;;;;9.68;8.70;;;5.80;99.90;;;;;;5053935;28;20237;-80
2023/04/08 12:43:53;;;;;;;8.82;7.93;;;5.80;99.90;;;;;;5054782;28;20205;-81
2023/04/08 12:46:21;;;;;;;9.40;8.45;;;5.90;99.90;;;;;;5054474;28;20205;-81
2023/04/08 12:48:49;;;;;;;9.32;7.28;;;5.90;99.90;;;;;;5053228;28;20230;-81
2023/04/08 12:51:31;;;;;;;9.30;8.40;;;6.00;99.90;;;;;;5054176;28;20237;-81
2023/04/08 12:54:03;;;;;;;8.50;7.65;;;6.00;99.90;;;;;;5054155;28;20269;-81
2023/04/08 12:56:32;;;;;;;10.02;9.02;;;6.10;99.90;;;;;;5054346;28;20233;-81
2023/04/08 12:59:01;;;;;;;7.55;6.85;;;6.20;99.90;;;;;;5053663;28;20216;-80
2023/04/08 13:01:29;;;;;;;11.40;7.05;;;6.30;99.90;;;;;;5053574;28;20260;-80
2023/04/08 13:03:58;;;;;;;6.85;6.25;;;6.30;99.90;;;;;;5053919;28;20206;-80
2023/04/08 13:06:26;;;;;;;6.50;5.88;;;6.30;99.90;;;;;;5053742;28;20213;-80
2023/04/08 13:08:55;;;;;;;7.93;7.22;;;6.30;99.90;;;;;;5053278;28;20236;-80